sensor_id;sensor_type;location;lat;lon;timestamp;temperature;humidity
67364;HTU21D;54250;45.572;38.086;2022-12-18T00:01:58;7.90;92.82
67364;HTU21D;54250;45.572;38.086;2022-12-18T00:04:26;7.82;92.92
67364;HTU21D;54250;45.572;38.086;2022-12-18T00:06:52;7.76;92.99
67364;HTU21D;54250;45.572;38.086;2022-12-18T00:09:19;7.73;92.88
67364;HTU21D;54250;45.572;38.086;2022-12-18T00:11:45;7.67;92.86
67364;HTU21D;54250;45.572;38.086;2022-12-18T00:14:12;7.59;92.87
67364;HTU21D;54250;45.572;38.086;2022-12-18T00:16:39;7.57;92.82
67364;HTU21D;54250;45.572;38.086;2022-12-18T00:19:05;7.52;92.77
67364;HTU21D;54250;45.572;38.086;2022-12-18T00:21:33;7.46;92.79
67364;HTU21D;54250;45.572;38.086;2022-12-18T00:24:00;7.47;92.66
67364;HTU21D;54250;45.572;38.086;2022-12-18T00:26:28;7.46;92.58
67364;HTU21D;54250;45.572;38.086;2022-12-18T00:29:03;7.49;92.57
67364;HTU21D;54250;45.572;38.086;2022-12-18T00:31:30;7.47;92.42
67364;HTU21D;54250;45.572;38.086;2022-12-18T00:33:56;7.43;92.45
67364;HTU21D;54250;45.572;38.086;2022-12-18T00:36:25;7.46;92.48
67364;HTU21D;54250;45.572;38.086;2022-12-18T00:38:53;7.55;92.30
67364;HTU21D;54250;45.572;38.086;2022-12-18T00:41:20;7.65;92.18
67364;HTU21D;54250;45.572;38.086;2022-12-18T00:44:05;7.77;92.00
67364;HTU21D;54250;45.572;38.086;2022-12-18T00:46:32;7.94;91.95
67364;HTU21D;54250;45.572;38.086;2022-12-18T00:48:58;8.15;91.63
67364;HTU21D;54250;45.572;38.086;2022-12-18T00:51:24;8.35;91.48
67364;HTU21D;54250;45.572;38.086;2022-12-18T00:53:50;8.56;91.21
67364;HTU21D;54250;45.572;38.086;2022-12-18T00:56:16;8.77;91.11
67364;HTU21D;54250;45.572;38.086;2022-12-18T00:58:42;9.04;90.96
67364;HTU21D;54250;45.572;38.086;2022-12-18T01:01:09;9.26;90.70
67364;HTU21D;54250;45.572;38.086;2022-12-18T01:03:34;9.49;90.56
67364;HTU21D;54250;45.572;38.086;2022-12-18T01:06:09;9.68;90.52
67364;HTU21D;54250;45.572;38.086;2022-12-18T01:08:36;9.89;90.47
67364;HTU21D;54250;45.572;38.086;2022-12-18T01:11:10;10.06;90.35
67364;HTU21D;54250;45.572;38.086;2022-12-18T01:13:37;10.22;90.38
67364;HTU21D;54250;45.572;38.086;2022-12-18T01:16:04;10.38;90.25
67364;HTU21D;54250;45.572;38.086;2022-12-18T01:18:30;10.53;90.25
67364;HTU21D;54250;45.572;38.086;2022-12-18T01:20:58;10.71;90.15
67364;HTU21D;54250;45.572;38.086;2022-12-18T01:23:24;10.88;89.79
67364;HTU21D;54250;45.572;38.086;2022-12-18T01:25:50;11.16;89.28
67364;HTU21D;54250;45.572;38.086;2022-12-18T01:28:16;11.39;88.81
67364;HTU21D;54250;45.572;38.086;2022-12-18T01:30:42;11.52;88.72
67364;HTU21D;54250;45.572;38.086;2022-12-18T01:33:08;11.66;88.50
67364;HTU21D;54250;45.572;38.086;2022-12-18T01:35:41;11.75;88.29
67364;HTU21D;54250;45.572;38.086;2022-12-18T01:38:07;11.76;88.28
67364;HTU21D;54250;45.572;38.086;2022-12-18T01:40:34;11.85;87.94
67364;HTU21D;54250;45.572;38.086;2022-12-18T01:43:00;11.89;87.80
67364;HTU21D;54250;45.572;38.086;2022-12-18T01:45:31;11.96;87.62
67364;HTU21D;54250;45.572;38.086;2022-12-18T01:48:00;12.08;87.28
67364;HTU21D;54250;45.572;38.086;2022-12-18T01:50:32;12.14;87.27
67364;HTU21D;54250;45.572;38.086;2022-12-18T01:53:15;12.16;87.19
67364;HTU21D;54250;45.572;38.086;2022-12-18T01:55:52;12.14;86.96
67364;HTU21D;54250;45.572;38.086;2022-12-18T01:58:46;12.14;86.46
67364;HTU21D;54250;45.572;38.086;2022-12-18T02:01:09;12.10;86.37
67364;HTU21D;54250;45.572;38.086;2022-12-18T02:03:35;12.04;86.51
67364;HTU21D;54250;45.572;38.086;2022-12-18T02:27:39;11.76;86.12
67364;HTU21D;54250;45.572;38.086;2022-12-18T02:30:07;11.75;86.01
67364;HTU21D;54250;45.572;38.086;2022-12-18T02:32:39;11.78;85.76
67364;HTU21D;54250;45.572;38.086;2022-12-18T02:35:16;11.76;85.74
67364;HTU21D;54250;45.572;38.086;2022-12-18T02:37:46;11.72;85.83
67364;HTU21D;54250;45.572;38.086;2022-12-18T02:40:14;11.68;85.87
67364;HTU21D;54250;45.572;38.086;2022-12-18T02:42:41;11.70;85.64
67364;HTU21D;54250;45.572;38.086;2022-12-18T02:45:10;11.64;85.74
67364;HTU21D;54250;45.572;38.086;2022-12-18T02:47:39;11.58;85.93
67364;HTU21D;54250;45.572;38.086;2022-12-18T03:01:34;11.42;86.06
67364;HTU21D;54250;45.572;38.086;2022-12-18T03:04:12;11.41;85.93
67364;HTU21D;54250;45.572;38.086;2022-12-18T03:06:43;11.41;85.91
67364;HTU21D;54250;45.572;38.086;2022-12-18T03:09:21;11.37;85.87
67364;HTU21D;54250;45.572;38.086;2022-12-18T03:11:58;11.25;86.13
67364;HTU21D;54250;45.572;38.086;2022-12-18T03:15:22;11.02;86.54
67364;HTU21D;54250;45.572;38.086;2022-12-18T03:18:02;10.88;86.89
67364;HTU21D;54250;45.572;38.086;2022-12-18T03:20:31;10.78;87.12
67364;HTU21D;54250;45.572;38.086;2022-12-18T03:23:06;10.73;87.15
67364;HTU21D;54250;45.572;38.086;2022-12-18T03:25:39;10.70;87.01
67364;HTU21D;54250;45.572;38.086;2022-12-18T03:28:07;10.62;87.13
67364;HTU21D;54250;45.572;38.086;2022-12-18T03:30:37;10.58;87.15
67364;HTU21D;54250;45.572;38.086;2022-12-18T03:33:25;10.49;87.16
67364;HTU21D;54250;45.572;38.086;2022-12-18T03:35:55;10.44;87.31
67364;HTU21D;54250;45.572;38.086;2022-12-18T03:38:22;10.38;87.41
67364;HTU21D;54250;45.572;38.086;2022-12-18T03:49:10;10.57;86.69
67364;HTU21D;54250;45.572;38.086;2022-12-18T03:51:43;10.64;86.63
67364;HTU21D;54250;45.572;38.086;2022-12-18T03:54:15;10.68;86.61
67364;HTU21D;54250;45.572;38.086;2022-12-18T03:56:57;10.69;86.63
67364;HTU21D;54250;45.572;38.086;2022-12-18T03:59:26;10.72;86.61
67364;HTU21D;54250;45.572;38.086;2022-12-18T04:01:53;10.69;86.70
67364;HTU21D;54250;45.572;38.086;2022-12-18T04:04:23;10.63;86.86
67364;HTU21D;54250;45.572;38.086;2022-12-18T04:06:51;10.60;86.95
67364;HTU21D;54250;45.572;38.086;2022-12-18T04:09:20;10.58;87.00
67364;HTU21D;54250;45.572;38.086;2022-12-18T04:11:47;10.66;86.85
67364;HTU21D;54250;45.572;38.086;2022-12-18T04:14:15;10.68;86.72
67364;HTU21D;54250;45.572;38.086;2022-12-18T04:16:41;10.74;86.70
67364;HTU21D;54250;45.572;38.086;2022-12-18T04:19:11;10.82;86.52
67364;HTU21D;54250;45.572;38.086;2022-12-18T04:21:40;10.89;86.36
67364;HTU21D;54250;45.572;38.086;2022-12-18T04:24:09;10.94;86.20
67364;HTU21D;54250;45.572;38.086;2022-12-18T04:26:39;10.96;86.12
67364;HTU21D;54250;45.572;38.086;2022-12-18T04:29:15;11.03;86.02
67364;HTU21D;54250;45.572;38.086;2022-12-18T04:31:42;11.14;85.74
67364;HTU21D;54250;45.572;38.086;2022-12-18T04:34:09;11.26;85.41
67364;HTU21D;54250;45.572;38.086;2022-12-18T04:36:41;11.29;85.21
67364;HTU21D;54250;45.572;38.086;2022-12-18T04:39:07;11.23;85.29
67364;HTU21D;54250;45.572;38.086;2022-12-18T04:41:33;11.17;85.31
67364;HTU21D;54250;45.572;38.086;2022-12-18T04:44:00;11.12;85.36
67364;HTU21D;54250;45.572;38.086;2022-12-18T04:46:26;11.19;85.14
67364;HTU21D;54250;45.572;38.086;2022-12-18T04:48:52;11.26;84.90
67364;HTU21D;54250;45.572;38.086;2022-12-18T04:51:18;11.23;85.00
67364;HTU21D;54250;45.572;38.086;2022-12-18T04:53:44;11.26;85.07
67364;HTU21D;54250;45.572;38.086;2022-12-18T04:56:13;11.36;84.78
67364;HTU21D;54250;45.572;38.086;2022-12-18T04:58:40;11.37;84.71
67364;HTU21D;54250;45.572;38.086;2022-12-18T05:01:07;11.36;84.80
67364;HTU21D;54250;45.572;38.086;2022-12-18T05:03:34;11.33;84.76
67364;HTU21D;54250;45.572;38.086;2022-12-18T05:06:00;11.27;84.92
67364;HTU21D;54250;45.572;38.086;2022-12-18T05:08:26;11.15;85.24
67364;HTU21D;54250;45.572;38.086;2022-12-18T05:11:00;11.16;85.25
67364;HTU21D;54250;45.572;38.086;2022-12-18T05:13:27;11.23;85.21
67364;HTU21D;54250;45.572;38.086;2022-12-18T05:15:54;11.30;84.99
67364;HTU21D;54250;45.572;38.086;2022-12-18T05:18:22;11.37;84.84
67364;HTU21D;54250;45.572;38.086;2022-12-18T05:20:50;11.37;84.91
67364;HTU21D;54250;45.572;38.086;2022-12-18T05:23:16;11.25;85.06
67364;HTU21D;54250;45.572;38.086;2022-12-18T05:25:42;11.00;85.51
67364;HTU21D;54250;45.572;38.086;2022-12-18T05:28:12;10.72;85.99
67364;HTU21D;54250;45.572;38.086;2022-12-18T05:30:37;10.56;86.28
67364;HTU21D;54250;45.572;38.086;2022-12-18T05:33:03;10.51;86.32
67364;HTU21D;54250;45.572;38.086;2022-12-18T05:35:29;10.50;86.19
67364;HTU21D;54250;45.572;38.086;2022-12-18T05:37:55;10.49;86.12
67364;HTU21D;54250;45.572;38.086;2022-12-18T05:40:21;10.48;86.09
67364;HTU21D;54250;45.572;38.086;2022-12-18T05:42:47;10.49;86.08
67364;HTU21D;54250;45.572;38.086;2022-12-18T05:45:14;10.51;86.02
67364;HTU21D;54250;45.572;38.086;2022-12-18T05:47:40;10.63;85.80
67364;HTU21D;54250;45.572;38.086;2022-12-18T05:50:06;10.83;85.37
67364;HTU21D;54250;45.572;38.086;2022-12-18T05:52:33;11.02;84.90
67364;HTU21D;54250;45.572;38.086;2022-12-18T05:54:59;11.19;84.62
67364;HTU21D;54250;45.572;38.086;2022-12-18T05:57:25;11.33;84.37
67364;HTU21D;54250;45.572;38.086;2022-12-18T05:59:51;11.38;84.40
67364;HTU21D;54250;45.572;38.086;2022-12-18T06:02:17;11.38;84.53
67364;HTU21D;54250;45.572;38.086;2022-12-18T06:04:43;11.31;84.77
67364;HTU21D;54250;45.572;38.086;2022-12-18T06:07:09;11.24;85.06
67364;HTU21D;54250;45.572;38.086;2022-12-18T06:09:35;11.18;85.25
67364;HTU21D;54250;45.572;38.086;2022-12-18T06:12:01;11.16;85.40
67364;HTU21D;54250;45.572;38.086;2022-12-18T06:14:27;11.12;85.55
67364;HTU21D;54250;45.572;38.086;2022-12-18T06:16:54;11.10;85.66
67364;HTU21D;54250;45.572;38.086;2022-12-18T06:19:23;11.13;85.70
67364;HTU21D;54250;45.572;38.086;2022-12-18T06:21:49;11.15;85.66
67364;HTU21D;54250;45.572;38.086;2022-12-18T06:24:16;11.22;85.58
67364;HTU21D;54250;45.572;38.086;2022-12-18T06:26:42;11.29;85.50
67364;HTU21D;54250;45.572;38.086;2022-12-18T06:29:08;11.42;85.39
67364;HTU21D;54250;45.572;38.086;2022-12-18T06:31:34;11.58;85.16
67364;HTU21D;54250;45.572;38.086;2022-12-18T06:34:04;11.68;84.99
67364;HTU21D;54250;45.572;38.086;2022-12-18T06:36:30;11.74;84.89
67364;HTU21D;54250;45.572;38.086;2022-12-18T06:38:57;11.82;84.93
67364;HTU21D;54250;45.572;38.086;2022-12-18T06:41:23;11.87;84.91
67364;HTU21D;54250;45.572;38.086;2022-12-18T06:43:49;11.91;84.90
67364;HTU21D;54250;45.572;38.086;2022-12-18T06:46:15;11.90;85.05
67364;HTU21D;54250;45.572;38.086;2022-12-18T06:48:41;11.87;85.16
67364;HTU21D;54250;45.572;38.086;2022-12-18T06:51:07;11.84;85.32
67364;HTU21D;54250;45.572;38.086;2022-12-18T06:53:34;11.83;85.42
67364;HTU21D;54250;45.572;38.086;2022-12-18T06:56:02;11.84;85.51
67364;HTU21D;54250;45.572;38.086;2022-12-18T06:58:28;11.86;85.51
67364;HTU21D;54250;45.572;38.086;2022-12-18T07:01:03;11.90;85.51
67364;HTU21D;54250;45.572;38.086;2022-12-18T07:03:29;11.93;85.48
67364;HTU21D;54250;45.572;38.086;2022-12-18T07:05:56;12.02;85.44
67364;HTU21D;54250;45.572;38.086;2022-12-18T07:08:22;12.20;85.22
67364;HTU21D;54250;45.572;38.086;2022-12-18T07:10:48;12.40;84.92
67364;HTU21D;54250;45.572;38.086;2022-12-18T07:13:17;12.65;84.59
67364;HTU21D;54250;45.572;38.086;2022-12-18T07:15:44;13.02;84.07
67364;HTU21D;54250;45.572;38.086;2022-12-18T07:18:10;13.34;83.56
67364;HTU21D;54250;45.572;38.086;2022-12-18T07:20:36;13.58;83.26
67364;HTU21D;54250;45.572;38.086;2022-12-18T07:23:03;13.76;83.21
67364;HTU21D;54250;45.572;38.086;2022-12-18T07:25:36;13.97;83.17
67364;HTU21D;54250;45.572;38.086;2022-12-18T07:28:03;14.18;83.04
67364;HTU21D;54250;45.572;38.086;2022-12-18T07:30:29;14.36;82.98
67364;HTU21D;54250;45.572;38.086;2022-12-18T07:32:55;14.48;83.03
67364;HTU21D;54250;45.572;38.086;2022-12-18T07:35:21;14.50;83.27
67364;HTU21D;54250;45.572;38.086;2022-12-18T07:37:48;14.44;83.64
67364;HTU21D;54250;45.572;38.086;2022-12-18T07:40:14;14.32;84.13
67364;HTU21D;54250;45.572;38.086;2022-12-18T07:42:40;14.21;84.54
67364;HTU21D;54250;45.572;38.086;2022-12-18T07:45:06;14.06;84.94
67364;HTU21D;54250;45.572;38.086;2022-12-18T07:47:35;13.95;85.29
67364;HTU21D;54250;45.572;38.086;2022-12-18T07:50:03;13.92;85.44
67364;HTU21D;54250;45.572;38.086;2022-12-18T07:52:29;13.92;85.48
67364;HTU21D;54250;45.572;38.086;2022-12-18T07:54:55;13.91;85.49
67364;HTU21D;54250;45.572;38.086;2022-12-18T07:57:21;13.83;85.64
67364;HTU21D;54250;45.572;38.086;2022-12-18T07:59:47;13.75;85.84
67364;HTU21D;54250;45.572;38.086;2022-12-18T08:02:13;13.70;85.98
67364;HTU21D;54250;45.572;38.086;2022-12-18T08:04:39;13.68;86.07
67364;HTU21D;54250;45.572;38.086;2022-12-18T08:07:05;13.69;86.06
67364;HTU21D;54250;45.572;38.086;2022-12-18T08:09:31;13.74;86.01
67364;HTU21D;54250;45.572;38.086;2022-12-18T08:11:57;13.79;85.98
67364;HTU21D;54250;45.572;38.086;2022-12-18T08:14:24;13.89;85.90
67364;HTU21D;54250;45.572;38.086;2022-12-18T08:16:50;13.96;85.81
67364;HTU21D;54250;45.572;38.086;2022-12-18T08:19:16;14.08;85.71
67364;HTU21D;54250;45.572;38.086;2022-12-18T08:21:42;14.21;85.59
67364;HTU21D;54250;45.572;38.086;2022-12-18T08:24:09;14.36;85.45
67364;HTU21D;54250;45.572;38.086;2022-12-18T08:26:36;14.51;85.32
67364;HTU21D;54250;45.572;38.086;2022-12-18T08:29:02;14.70;85.05
67364;HTU21D;54250;45.572;38.086;2022-12-18T08:31:30;14.78;85.00
67364;HTU21D;54250;45.572;38.086;2022-12-18T08:33:57;14.75;85.19
67364;HTU21D;54250;45.572;38.086;2022-12-18T08:36:24;14.68;85.56
67364;HTU21D;54250;45.572;38.086;2022-12-18T08:38:50;14.62;85.90
67364;HTU21D;54250;45.572;38.086;2022-12-18T08:41:17;14.50;86.24
67364;HTU21D;54250;45.572;38.086;2022-12-18T08:43:44;14.45;86.51
67364;HTU21D;54250;45.572;38.086;2022-12-18T08:46:34;14.47;86.57
67364;HTU21D;54250;45.572;38.086;2022-12-18T08:49:00;14.44;86.63
67364;HTU21D;54250;45.572;38.086;2022-12-18T08:51:26;14.38;86.76
67364;HTU21D;54250;45.572;38.086;2022-12-18T08:53:52;14.25;86.99
67364;HTU21D;54250;45.572;38.086;2022-12-18T08:56:18;14.13;87.27
67364;HTU21D;54250;45.572;38.086;2022-12-18T08:58:44;13.98;87.49
67364;HTU21D;54250;45.572;38.086;2022-12-18T09:01:12;13.89;87.65
67364;HTU21D;54250;45.572;38.086;2022-12-18T09:03:40;13.81;87.67
67364;HTU21D;54250;45.572;38.086;2022-12-18T09:06:08;13.76;87.63
67364;HTU21D;54250;45.572;38.086;2022-12-18T09:08:34;13.70;87.57
67364;HTU21D;54250;45.572;38.086;2022-12-18T09:11:02;13.68;87.58
67364;HTU21D;54250;45.572;38.086;2022-12-18T09:13:28;13.86;87.27
67364;HTU21D;54250;45.572;38.086;2022-12-18T09:15:55;13.88;86.90
67364;HTU21D;54250;45.572;38.086;2022-12-18T09:18:22;13.80;87.03
67364;HTU21D;54250;45.572;38.086;2022-12-18T09:20:49;13.73;87.15
67364;HTU21D;54250;45.572;38.086;2022-12-18T09:23:17;13.64;87.30
67364;HTU21D;54250;45.572;38.086;2022-12-18T09:25:43;13.54;87.48
67364;HTU21D;54250;45.572;38.086;2022-12-18T09:28:12;13.50;87.57
67364;HTU21D;54250;45.572;38.086;2022-12-18T09:30:40;13.54;87.51
67364;HTU21D;54250;45.572;38.086;2022-12-18T09:33:06;13.63;87.37
67364;HTU21D;54250;45.572;38.086;2022-12-18T09:35:35;13.66;87.21
67364;HTU21D;54250;45.572;38.086;2022-12-18T09:38:01;13.58;87.34
67364;HTU21D;54250;45.572;38.086;2022-12-18T09:40:34;13.47;87.58
67364;HTU21D;54250;45.572;38.086;2022-12-18T09:43:04;13.45;87.73
67364;HTU21D;54250;45.572;38.086;2022-12-18T09:45:39;13.51;87.64
67364;HTU21D;54250;45.572;38.086;2022-12-18T09:48:14;13.66;87.26
67364;HTU21D;54250;45.572;38.086;2022-12-18T09:50:43;13.74;87.15
67364;HTU21D;54250;45.572;38.086;2022-12-18T09:53:18;13.77;87.10
67364;HTU21D;54250;45.572;38.086;2022-12-18T09:55:46;13.77;87.14
67364;HTU21D;54250;45.572;38.086;2022-12-18T10:00:55;13.73;87.30
67364;HTU21D;54250;45.572;38.086;2022-12-18T10:03:21;13.64;87.55
67364;HTU21D;54250;45.572;38.086;2022-12-18T10:14:21;13.22;88.17
67364;HTU21D;54250;45.572;38.086;2022-12-18T10:22:39;12.77;88.55
67364;HTU21D;54250;45.572;38.086;2022-12-18T10:27:47;12.57;88.77
67364;HTU21D;54250;45.572;38.086;2022-12-18T10:30:16;12.47;88.81
67364;HTU21D;54250;45.572;38.086;2022-12-18T10:32:42;12.40;88.82
67364;HTU21D;54250;45.572;38.086;2022-12-18T10:35:25;12.31;88.83
67364;HTU21D;54250;45.572;38.086;2022-12-18T10:38:25;12.15;88.94
67364;HTU21D;54250;45.572;38.086;2022-12-18T10:41:04;12.06;89.02
67364;HTU21D;54250;45.572;38.086;2022-12-18T10:43:33;11.93;89.12
67364;HTU21D;54250;45.572;38.086;2022-12-18T10:51:39;11.52;89.34
67364;HTU21D;54250;45.572;38.086;2022-12-18T10:54:12;11.39;89.54
67364;HTU21D;54250;45.572;38.086;2022-12-18T10:56:39;11.26;89.63
67364;HTU21D;54250;45.572;38.086;2022-12-18T10:59:08;11.15;89.65
67364;HTU21D;54250;45.572;38.086;2022-12-18T11:01:55;11.05;89.63
67364;HTU21D;54250;45.572;38.086;2022-12-18T11:09:27;10.73;89.83
67364;HTU21D;54250;45.572;38.086;2022-12-18T11:11:56;10.66;89.83
67364;HTU21D;54250;45.572;38.086;2022-12-18T11:14:28;10.57;89.88
67364;HTU21D;54250;45.572;38.086;2022-12-18T11:16:55;10.46;89.89
67364;HTU21D;54250;45.572;38.086;2022-12-18T11:19:39;10.35;89.88
67364;HTU21D;54250;45.572;38.086;2022-12-18T11:22:31;10.22;89.94
67364;HTU21D;54250;45.572;38.086;2022-12-18T11:27:32;9.97;90.18
67364;HTU21D;54250;45.572;38.086;2022-12-18T11:33:15;9.74;90.17
67364;HTU21D;54250;45.572;38.086;2022-12-18T11:35:56;9.66;90.23
67364;HTU21D;54250;45.572;38.086;2022-12-18T11:38:27;9.60;90.23
67364;HTU21D;54250;45.572;38.086;2022-12-18T11:43:55;9.46;90.15
67364;HTU21D;54250;45.572;38.086;2022-12-18T11:46:37;9.41;90.12
67364;HTU21D;54250;45.572;38.086;2022-12-18T11:52:31;9.27;90.28
67364;HTU21D;54250;45.572;38.086;2022-12-18T11:54:51;9.21;90.26
67364;HTU21D;54250;45.572;38.086;2022-12-18T12:00:22;9.08;90.28
67364;HTU21D;54250;45.572;38.086;2022-12-18T12:03:09;8.98;90.36
67364;HTU21D;54250;45.572;38.086;2022-12-18T12:06:04;8.94;90.44
67364;HTU21D;54250;45.572;38.086;2022-12-18T12:08:54;8.87;90.43
67364;HTU21D;54250;45.572;38.086;2022-12-18T12:16:45;8.61;90.73
67364;HTU21D;54250;45.572;38.086;2022-12-18T12:25:10;8.39;90.80
67364;HTU21D;54250;45.572;38.086;2022-12-18T12:27:59;8.36;90.88
67364;HTU21D;54250;45.572;38.086;2022-12-18T12:30:39;8.30;90.92
67364;HTU21D;54250;45.572;38.086;2022-12-18T12:39:00;8.17;90.87
67364;HTU21D;54250;45.572;38.086;2022-12-18T12:41:31;8.13;90.94
67364;HTU21D;54250;45.572;38.086;2022-12-18T12:44:30;8.06;90.92
67364;HTU21D;54250;45.572;38.086;2022-12-18T12:47:04;8.03;90.99
67364;HTU21D;54250;45.572;38.086;2022-12-18T12:49:33;7.98;91.04
67364;HTU21D;54250;45.572;38.086;2022-12-18T12:52:17;7.91;91.02
67364;HTU21D;54250;45.572;38.086;2022-12-18T12:54:47;7.86;91.11
67364;HTU21D;54250;45.572;38.086;2022-12-18T12:57:25;7.82;91.19
67364;HTU21D;54250;45.572;38.086;2022-12-18T13:07:41;7.56;91.25
67364;HTU21D;54250;45.572;38.086;2022-12-18T13:11:04;7.49;91.24
67364;HTU21D;54250;45.572;38.086;2022-12-18T13:13:15;7.43;91.33
67364;HTU21D;54250;45.572;38.086;2022-12-18T13:15:47;7.37;91.37
67364;HTU21D;54250;45.572;38.086;2022-12-18T13:18:21;7.31;91.32
67364;HTU21D;54250;45.572;38.086;2022-12-18T13:21:02;7.25;91.39
67364;HTU21D;54250;45.572;38.086;2022-12-18T13:23:34;7.17;91.41
67364;HTU21D;54250;45.572;38.086;2022-12-18T13:36:35;6.93;91.54
67364;HTU21D;54250;45.572;38.086;2022-12-18T13:41:41;6.84;91.52
67364;HTU21D;54250;45.572;38.086;2022-12-18T13:46:57;6.72;91.60
67364;HTU21D;54250;45.572;38.086;2022-12-18T13:49:41;6.67;91.66
67364;HTU21D;54250;45.572;38.086;2022-12-18T13:52:21;6.61;91.61
67364;HTU21D;54250;45.572;38.086;2022-12-18T13:54:51;6.57;91.64
67364;HTU21D;54250;45.572;38.086;2022-12-18T13:57:36;6.51;91.60
67364;HTU21D;54250;45.572;38.086;2022-12-18T14:02:55;6.39;91.71
67364;HTU21D;54250;45.572;38.086;2022-12-18T14:05:29;6.36;91.67
67364;HTU21D;54250;45.572;38.086;2022-12-18T14:08:08;6.35;91.64
67364;HTU21D;54250;45.572;38.086;2022-12-18T14:10:43;6.33;91.63
67364;HTU21D;54250;45.572;38.086;2022-12-18T14:13:23;6.30;91.60
67364;HTU21D;54250;45.572;38.086;2022-12-18T14:15:54;6.27;91.62
67364;HTU21D;54250;45.572;38.086;2022-12-18T14:18:32;6.26;91.53
67364;HTU21D;54250;45.572;38.086;2022-12-18T14:21:01;6.24;91.59
67364;HTU21D;54250;45.572;38.086;2022-12-18T14:26:26;6.25;91.55
67364;HTU21D;54250;45.572;38.086;2022-12-18T14:29:16;6.23;91.50
67364;HTU21D;54250;45.572;38.086;2022-12-18T14:31:43;6.20;91.53
67364;HTU21D;54250;45.572;38.086;2022-12-18T14:34:19;6.17;91.45
67364;HTU21D;54250;45.572;38.086;2022-12-18T14:36:54;6.16;91.48
67364;HTU21D;54250;45.572;38.086;2022-12-18T14:39:22;6.14;91.51
67364;HTU21D;54250;45.572;38.086;2022-12-18T14:41:49;6.13;91.50
67364;HTU21D;54250;45.572;38.086;2022-12-18T14:44:15;6.11;91.46
67364;HTU21D;54250;45.572;38.086;2022-12-18T14:46:43;6.11;91.47
67364;HTU21D;54250;45.572;38.086;2022-12-18T14:49:32;6.10;91.41
67364;HTU21D;54250;45.572;38.086;2022-12-18T14:52:04;6.07;91.46
67364;HTU21D;54250;45.572;38.086;2022-12-18T14:54:31;6.05;91.51
67364;HTU21D;54250;45.572;38.086;2022-12-18T14:57:02;6.07;91.45
67364;HTU21D;54250;45.572;38.086;2022-12-18T14:59:29;6.04;91.44
67364;HTU21D;54250;45.572;38.086;2022-12-18T15:02:25;6.00;91.37
67364;HTU21D;54250;45.572;38.086;2022-12-18T15:05:16;5.98;91.39
67364;HTU21D;54250;45.572;38.086;2022-12-18T15:07:48;5.95;91.43
67364;HTU21D;54250;45.572;38.086;2022-12-18T15:10:23;5.94;91.44
67364;HTU21D;54250;45.572;38.086;2022-12-18T15:18:13;5.91;91.38
67364;HTU21D;54250;45.572;38.086;2022-12-18T15:20:52;5.90;91.41
67364;HTU21D;54250;45.572;38.086;2022-12-18T15:25:59;5.89;91.41
67364;HTU21D;54250;45.572;38.086;2022-12-18T15:36:19;5.85;91.46
67364;HTU21D;54250;45.572;38.086;2022-12-18T15:38:53;5.86;91.41
67364;HTU21D;54250;45.572;38.086;2022-12-18T15:41:21;5.85;91.44
67364;HTU21D;54250;45.572;38.086;2022-12-18T15:43:49;5.84;91.42
67364;HTU21D;54250;45.572;38.086;2022-12-18T15:48:45;5.84;91.43
67364;HTU21D;54250;45.572;38.086;2022-12-18T15:53:40;5.83;91.43
67364;HTU21D;54250;45.572;38.086;2022-12-18T15:56:10;5.81;91.40
67364;HTU21D;54250;45.572;38.086;2022-12-18T15:58:55;5.78;91.43
67364;HTU21D;54250;45.572;38.086;2022-12-18T16:01:23;5.74;91.47
67364;HTU21D;54250;45.572;38.086;2022-12-18T16:03:49;5.70;91.48
67364;HTU21D;54250;45.572;38.086;2022-12-18T16:06:15;5.68;91.50
67364;HTU21D;54250;45.572;38.086;2022-12-18T16:08:41;5.65;91.50
67364;HTU21D;54250;45.572;38.086;2022-12-18T16:11:21;5.64;91.40
67364;HTU21D;54250;45.572;38.086;2022-12-18T16:14:23;5.60;91.37
67364;HTU21D;54250;45.572;38.086;2022-12-18T16:16:56;5.56;91.47
67364;HTU21D;54250;45.572;38.086;2022-12-18T16:19:23;5.54;91.47
67364;HTU21D;54250;45.572;38.086;2022-12-18T16:21:51;5.51;91.49
67364;HTU21D;54250;45.572;38.086;2022-12-18T16:24:20;5.51;91.46
67364;HTU21D;54250;45.572;38.086;2022-12-18T16:26:48;5.51;91.42
67364;HTU21D;54250;45.572;38.086;2022-12-18T16:29:14;5.51;91.38
67364;HTU21D;54250;45.572;38.086;2022-12-18T16:31:41;5.49;91.40
67364;HTU21D;54250;45.572;38.086;2022-12-18T16:34:22;5.50;91.31
67364;HTU21D;54250;45.572;38.086;2022-12-18T16:36:52;5.49;91.34
67364;HTU21D;54250;45.572;38.086;2022-12-18T16:39:19;5.48;91.37
67364;HTU21D;54250;45.572;38.086;2022-12-18T16:41:46;5.49;91.38
67364;HTU21D;54250;45.572;38.086;2022-12-18T16:44:13;5.47;91.36
67364;HTU21D;54250;45.572;38.086;2022-12-18T16:46:40;5.48;91.35
67364;HTU21D;54250;45.572;38.086;2022-12-18T16:49:08;5.48;91.36
67364;HTU21D;54250;45.572;38.086;2022-12-18T16:51:35;5.48;91.36
67364;HTU21D;54250;45.572;38.086;2022-12-18T16:54:02;5.48;91.31
67364;HTU21D;54250;45.572;38.086;2022-12-18T16:56:28;5.48;91.31
67364;HTU21D;54250;45.572;38.086;2022-12-18T16:58:56;5.48;91.34
67364;HTU21D;54250;45.572;38.086;2022-12-18T17:01:23;5.47;91.33
67364;HTU21D;54250;45.572;38.086;2022-12-18T17:03:54;5.47;91.31
67364;HTU21D;54250;45.572;38.086;2022-12-18T17:06:21;5.43;91.34
67364;HTU21D;54250;45.572;38.086;2022-12-18T17:08:48;5.39;91.36
67364;HTU21D;54250;45.572;38.086;2022-12-18T17:11:19;5.36;91.33
67364;HTU21D;54250;45.572;38.086;2022-12-18T17:13:45;5.35;91.33
67364;HTU21D;54250;45.572;38.086;2022-12-18T17:16:11;5.35;91.30
67364;HTU21D;54250;45.572;38.086;2022-12-18T17:18:37;5.34;91.26
67364;HTU21D;54250;45.572;38.086;2022-12-18T17:21:05;5.33;91.23
67364;HTU21D;54250;45.572;38.086;2022-12-18T17:23:34;5.27;91.24
67364;HTU21D;54250;45.572;38.086;2022-12-18T17:26:00;5.24;91.24
67364;HTU21D;54250;45.572;38.086;2022-12-18T17:28:27;5.23;91.23
67364;HTU21D;54250;45.572;38.086;2022-12-18T17:30:54;5.21;91.20
67364;HTU21D;54250;45.572;38.086;2022-12-18T17:33:20;5.19;91.19
67364;HTU21D;54250;45.572;38.086;2022-12-18T17:35:47;5.17;91.18
67364;HTU21D;54250;45.572;38.086;2022-12-18T17:38:15;5.16;91.15
67364;HTU21D;54250;45.572;38.086;2022-12-18T17:40:41;5.13;91.15
67364;HTU21D;54250;45.572;38.086;2022-12-18T17:43:08;5.15;91.14
67364;HTU21D;54250;45.572;38.086;2022-12-18T17:45:36;5.15;91.11
67364;HTU21D;54250;45.572;38.086;2022-12-18T17:48:03;5.15;91.08
67364;HTU21D;54250;45.572;38.086;2022-12-18T17:50:34;5.13;91.08
67364;HTU21D;54250;45.572;38.086;2022-12-18T17:53:01;5.13;91.07
67364;HTU21D;54250;45.572;38.086;2022-12-18T17:55:27;5.13;91.06
67364;HTU21D;54250;45.572;38.086;2022-12-18T17:57:54;5.16;91.05
67364;HTU21D;54250;45.572;38.086;2022-12-18T18:00:20;5.16;91.03